sensor_id;sensor_type;location;lat;lon;timestamp;temperature;humidity
47310;DHT22;33046;52.270;6.832;2024-03-22T00:01:12;12.80;99.90
47310;DHT22;33046;52.270;6.832;2024-03-22T00:03:18;12.80;99.90
47310;DHT22;33046;52.270;6.832;2024-03-22T00:05:24;12.80;99.90
47310;DHT22;33046;52.270;6.832;2024-03-22T00:07:30;12.80;99.90
47310;DHT22;33046;52.270;6.832;2024-03-22T00:09:36;12.80;99.90
47310;DHT22;33046;52.270;6.832;2024-03-22T00:11:43;12.80;99.90
47310;DHT22;33046;52.270;6.832;2024-03-22T00:13:49;12.80;99.90
47310;DHT22;33046;52.270;6.832;2024-03-22T00:15:56;12.80;99.90
47310;DHT22;33046;52.270;6.832;2024-03-22T00:18:02;12.80;99.90
47310;DHT22;33046;52.270;6.832;2024-03-22T00:20:09;12.80;99.90
47310;DHT22;33046;52.270;6.832;2024-03-22T00:22:15;12.80;99.90
47310;DHT22;33046;52.270;6.832;2024-03-22T00:24:21;12.80;99.90
47310;DHT22;33046;52.270;6.832;2024-03-22T00:26:27;12.80;99.90
47310;DHT22;33046;52.270;6.832;2024-03-22T00:28:33;12.80;99.90
47310;DHT22;33046;52.270;6.832;2024-03-22T00:30:38;12.80;99.90
47310;DHT22;33046;52.270;6.832;2024-03-22T00:32:46;12.80;99.90
47310;DHT22;33046;52.270;6.832;2024-03-22T00:34:52;12.80;99.90
47310;DHT22;33046;52.270;6.832;2024-03-22T00:36:58;12.80;99.90
47310;DHT22;33046;52.270;6.832;2024-03-22T00:39:03;12.80;99.90
47310;DHT22;33046;52.270;6.832;2024-03-22T00:41:09;12.80;99.90
47310;DHT22;33046;52.270;6.832;2024-03-22T00:43:15;12.80;99.90
47310;DHT22;33046;52.270;6.832;2024-03-22T00:45:21;12.80;99.90
47310;DHT22;33046;52.270;6.832;2024-03-22T00:47:27;12.80;99.90
47310;DHT22;33046;52.270;6.832;2024-03-22T00:49:35;12.80;99.90
47310;DHT22;33046;52.270;6.832;2024-03-22T00:51:41;12.80;99.90
47310;DHT22;33046;52.270;6.832;2024-03-22T00:53:46;12.80;99.90
47310;DHT22;33046;52.270;6.832;2024-03-22T00:55:54;12.90;99.90
47310;DHT22;33046;52.270;6.832;2024-03-22T00:58:00;12.90;99.90
47310;DHT22;33046;52.270;6.832;2024-03-22T01:00:07;12.90;99.90
47310;DHT22;33046;52.270;6.832;2024-03-22T01:02:13;12.90;99.90
47310;DHT22;33046;52.270;6.832;2024-03-22T01:04:19;12.90;99.90
47310;DHT22;33046;52.270;6.832;2024-03-22T01:06:26;12.90;99.90
47310;DHT22;33046;52.270;6.832;2024-03-22T01:08:32;12.90;99.90
47310;DHT22;33046;52.270;6.832;2024-03-22T01:10:38;12.90;99.90
47310;DHT22;33046;52.270;6.832;2024-03-22T01:12:44;12.90;99.90
47310;DHT22;33046;52.270;6.832;2024-03-22T01:14:50;12.90;99.90
47310;DHT22;33046;52.270;6.832;2024-03-22T01:16:56;12.90;99.90
47310;DHT22;33046;52.270;6.832;2024-03-22T01:19:02;12.80;99.90
47310;DHT22;33046;52.270;6.832;2024-03-22T01:21:08;12.90;99.90
47310;DHT22;33046;52.270;6.832;2024-03-22T01:23:15;12.90;99.90
47310;DHT22;33046;52.270;6.832;2024-03-22T01:25:21;12.90;99.90
47310;DHT22;33046;52.270;6.832;2024-03-22T01:27:27;12.90;99.90
47310;DHT22;33046;52.270;6.832;2024-03-22T01:29:33;12.90;99.90
47310;DHT22;33046;52.270;6.832;2024-03-22T01:31:39;12.90;99.90
47310;DHT22;33046;52.270;6.832;2024-03-22T01:33:45;12.90;99.90
47310;DHT22;33046;52.270;6.832;2024-03-22T01:35:51;12.90;99.90
47310;DHT22;33046;52.270;6.832;2024-03-22T01:37:57;12.90;99.90
47310;DHT22;33046;52.270;6.832;2024-03-22T01:40:05;12.90;99.90
47310;DHT22;33046;52.270;6.832;2024-03-22T01:42:11;13.00;99.90
47310;DHT22;33046;52.270;6.832;2024-03-22T01:44:17;12.90;99.90
47310;DHT22;33046;52.270;6.832;2024-03-22T01:46:23;12.90;99.90
47310;DHT22;33046;52.270;6.832;2024-03-22T01:48:29;13.00;99.90
47310;DHT22;33046;52.270;6.832;2024-03-22T01:50:35;12.90;99.90
47310;DHT22;33046;52.270;6.832;2024-03-22T01:52:41;13.00;99.90
47310;DHT22;33046;52.270;6.832;2024-03-22T01:54:47;13.00;99.90
47310;DHT22;33046;52.270;6.832;2024-03-22T01:56:54;13.00;99.90
47310;DHT22;33046;52.270;6.832;2024-03-22T01:59:00;13.00;99.90
47310;DHT22;33046;52.270;6.832;2024-03-22T02:01:06;13.00;99.90
47310;DHT22;33046;52.270;6.832;2024-03-22T02:03:12;13.00;99.90
47310;DHT22;33046;52.270;6.832;2024-03-22T02:05:18;13.00;99.90
47310;DHT22;33046;52.270;6.832;2024-03-22T02:07:24;12.90;99.90
47310;DHT22;33046;52.270;6.832;2024-03-22T02:09:30;13.00;99.90
47310;DHT22;33046;52.270;6.832;2024-03-22T02:11:37;12.90;99.90
47310;DHT22;33046;52.270;6.832;2024-03-22T02:13:45;13.00;99.90
47310;DHT22;33046;52.270;6.832;2024-03-22T02:15:51;13.00;99.90
47310;DHT22;33046;52.270;6.832;2024-03-22T02:17:57;13.00;99.90
47310;DHT22;33046;52.270;6.832;2024-03-22T02:20:03;13.00;99.90
47310;DHT22;33046;52.270;6.832;2024-03-22T02:22:09;13.00;99.90
47310;DHT22;33046;52.270;6.832;2024-03-22T02:24:16;13.00;99.90
47310;DHT22;33046;52.270;6.832;2024-03-22T02:26:22;13.00;99.90
47310;DHT22;33046;52.270;6.832;2024-03-22T02:28:28;13.00;99.90
47310;DHT22;33046;52.270;6.832;2024-03-22T02:30:34;13.00;99.90
47310;DHT22;33046;52.270;6.832;2024-03-22T02:32:40;13.00;99.90
47310;DHT22;33046;52.270;6.832;2024-03-22T02:34:46;13.00;99.90
47310;DHT22;33046;52.270;6.832;2024-03-22T02:36:52;13.00;99.90
47310;DHT22;33046;52.270;6.832;2024-03-22T02:38:58;13.00;99.90
47310;DHT22;33046;52.270;6.832;2024-03-22T02:41:05;13.00;99.90
47310;DHT22;33046;52.270;6.832;2024-03-22T02:43:11;13.00;99.90
47310;DHT22;33046;52.270;6.832;2024-03-22T02:45:17;13.00;99.90
47310;DHT22;33046;52.270;6.832;2024-03-22T02:47:23;13.00;99.90
47310;DHT22;33046;52.270;6.832;2024-03-22T02:49:29;13.00;99.90
47310;DHT22;33046;52.270;6.832;2024-03-22T02:51:35;13.00;99.90
47310;DHT22;33046;52.270;6.832;2024-03-22T02:53:41;13.00;99.90
47310;DHT22;33046;52.270;6.832;2024-03-22T02:55:47;13.00;99.90
47310;DHT22;33046;52.270;6.832;2024-03-22T02:57:56;13.00;99.90
47310;DHT22;33046;52.270;6.832;2024-03-22T03:00:02;13.00;99.90
47310;DHT22;33046;52.270;6.832;2024-03-22T03:02:08;13.00;99.90
47310;DHT22;33046;52.270;6.832;2024-03-22T03:04:14;13.00;99.90
47310;DHT22;33046;52.270;6.832;2024-03-22T03:06:20;13.00;99.90
47310;DHT22;33046;52.270;6.832;2024-03-22T03:08:26;13.00;99.90
47310;DHT22;33046;52.270;6.832;2024-03-22T03:10:32;13.10;99.90
47310;DHT22;33046;52.270;6.832;2024-03-22T03:12:38;13.00;99.90
47310;DHT22;33046;52.270;6.832;2024-03-22T03:14:45;13.10;99.90
47310;DHT22;33046;52.270;6.832;2024-03-22T03:16:51;13.10;99.90
47310;DHT22;33046;52.270;6.832;2024-03-22T03:18:57;13.10;99.90
47310;DHT22;33046;52.270;6.832;2024-03-22T03:21:03;13.10;99.90
47310;DHT22;33046;52.270;6.832;2024-03-22T03:23:09;13.10;99.90
47310;DHT22;33046;52.270;6.832;2024-03-22T03:25:15;13.00;99.90
47310;DHT22;33046;52.270;6.832;2024-03-22T03:27:21;13.00;99.90
47310;DHT22;33046;52.270;6.832;2024-03-22T03:29:27;13.10;99.90
47310;DHT22;33046;52.270;6.832;2024-03-22T03:31:34;13.00;99.90
47310;DHT22;33046;52.270;6.832;2024-03-22T03:33:40;13.10;99.90
47310;DHT22;33046;52.270;6.832;2024-03-22T03:35:46;13.10;99.90
47310;DHT22;33046;52.270;6.832;2024-03-22T03:37:52;13.10;99.90
47310;DHT22;33046;52.270;6.832;2024-03-22T03:39:58;13.10;99.90
47310;DHT22;33046;52.270;6.832;2024-03-22T03:42:04;13.10;99.90
47310;DHT22;33046;52.270;6.832;2024-03-22T03:44:09;13.10;99.90
47310;DHT22;33046;52.270;6.832;2024-03-22T03:46:15;13.00;99.90
47310;DHT22;33046;52.270;6.832;2024-03-22T03:48:23;13.10;99.90
47310;DHT22;33046;52.270;6.832;2024-03-22T03:50:29;13.10;99.90
47310;DHT22;33046;52.270;6.832;2024-03-22T03:52:34;13.00;99.90
47310;DHT22;33046;52.270;6.832;2024-03-22T03:54:40;13.10;99.90
47310;DHT22;33046;52.270;6.832;2024-03-22T03:56:46;13.00;99.90
47310;DHT22;33046;52.270;6.832;2024-03-22T03:58:52;13.00;99.90
47310;DHT22;33046;52.270;6.832;2024-03-22T04:00:58;13.00;99.90
47310;DHT22;33046;52.270;6.832;2024-03-22T04:03:04;13.10;99.90
47310;DHT22;33046;52.270;6.832;2024-03-22T04:05:11;13.10;99.90
47310;DHT22;33046;52.270;6.832;2024-03-22T04:07:17;13.10;99.90
47310;DHT22;33046;52.270;6.832;2024-03-22T04:09:23;13.10;99.90
47310;DHT22;33046;52.270;6.832;2024-03-22T04:11:29;13.10;99.90
47310;DHT22;33046;52.270;6.832;2024-03-22T04:13:35;13.10;99.90
47310;DHT22;33046;52.270;6.832;2024-03-22T04:15:41;13.10;99.90
47310;DHT22;33046;52.270;6.832;2024-03-22T04:17:47;13.10;99.90
47310;DHT22;33046;52.270;6.832;2024-03-22T04:19:53;13.10;99.90
47310;DHT22;33046;52.270;6.832;2024-03-22T04:22:00;13.10;99.90
47310;DHT22;33046;52.270;6.832;2024-03-22T04:24:06;13.10;99.90
47310;DHT22;33046;52.270;6.832;2024-03-22T04:26:12;13.10;99.90
47310;DHT22;33046;52.270;6.832;2024-03-22T04:28:18;13.10;99.90
47310;DHT22;33046;52.270;6.832;2024-03-22T04:30:24;13.10;99.90
47310;DHT22;33046;52.270;6.832;2024-03-22T04:32:29;13.10;99.90
47310;DHT22;33046;52.270;6.832;2024-03-22T04:34:35;13.00;99.90
47310;DHT22;33046;52.270;6.832;2024-03-22T04:36:41;13.10;99.90
47310;DHT22;33046;52.270;6.832;2024-03-22T04:38:49;13.10;99.90
47310;DHT22;33046;52.270;6.832;2024-03-22T04:40:55;13.10;99.90
47310;DHT22;33046;52.270;6.832;2024-03-22T04:43:01;13.10;99.90
47310;DHT22;33046;52.270;6.832;2024-03-22T04:45:07;13.10;99.90
47310;DHT22;33046;52.270;6.832;2024-03-22T04:47:13;13.10;99.90
47310;DHT22;33046;52.270;6.832;2024-03-22T04:49:19;13.10;99.90
47310;DHT22;33046;52.270;6.832;2024-03-22T04:51:25;13.10;99.90
47310;DHT22;33046;52.270;6.832;2024-03-22T04:53:31;13.10;99.90
47310;DHT22;33046;52.270;6.832;2024-03-22T04:55:38;13.10;99.90
47310;DHT22;33046;52.270;6.832;2024-03-22T04:57:44;13.10;99.90
47310;DHT22;33046;52.270;6.832;2024-03-22T04:59:50;13.10;99.90
47310;DHT22;33046;52.270;6.832;2024-03-22T05:01:56;13.10;99.90
47310;DHT22;33046;52.270;6.832;2024-03-22T05:04:02;13.10;99.90
47310;DHT22;33046;52.270;6.832;2024-03-22T05:06:08;13.10;99.90
47310;DHT22;33046;52.270;6.832;2024-03-22T05:08:14;13.10;99.90
47310;DHT22;33046;52.270;6.832;2024-03-22T05:10:19;13.10;99.90
47310;DHT22;33046;52.270;6.832;2024-03-22T05:12:27;13.10;99.90
47310;DHT22;33046;52.270;6.832;2024-03-22T05:14:33;13.10;99.90
47310;DHT22;33046;52.270;6.832;2024-03-22T05:16:38;13.10;99.90
47310;DHT22;33046;52.270;6.832;2024-03-22T05:18:44;13.10;99.90
47310;DHT22;33046;52.270;6.832;2024-03-22T05:20:50;13.10;99.90
47310;DHT22;33046;52.270;6.832;2024-03-22T05:22:56;13.10;99.90
47310;DHT22;33046;52.270;6.832;2024-03-22T05:25:03;13.20;99.90
47310;DHT22;33046;52.270;6.832;2024-03-22T05:27:09;13.10;99.90
47310;DHT22;33046;52.270;6.832;2024-03-22T05:29:16;13.20;99.90
47310;DHT22;33046;52.270;6.832;2024-03-22T05:31:22;13.20;99.90
47310;DHT22;33046;52.270;6.832;2024-03-22T05:33:28;13.10;99.90
47310;DHT22;33046;52.270;6.832;2024-03-22T05:35:33;13.10;99.90
47310;DHT22;33046;52.270;6.832;2024-03-22T05:37:39;13.20;99.90
47310;DHT22;33046;52.270;6.832;2024-03-22T05:39:45;13.20;99.90
47310;DHT22;33046;52.270;6.832;2024-03-22T05:41:51;13.10;99.90
47310;DHT22;33046;52.270;6.832;2024-03-22T05:43:57;13.20;99.90
47310;DHT22;33046;52.270;6.832;2024-03-22T05:46:04;13.20;99.90
47310;DHT22;33046;52.270;6.832;2024-03-22T05:48:10;13.20;99.90
47310;DHT22;33046;52.270;6.832;2024-03-22T05:50:16;13.20;99.90
47310;DHT22;33046;52.270;6.832;2024-03-22T05:52:22;13.20;99.90
47310;DHT22;33046;52.270;6.832;2024-03-22T05:54:28;13.10;99.90
47310;DHT22;33046;52.270;6.832;2024-03-22T05:56:34;13.20;99.90
47310;DHT22;33046;52.270;6.832;2024-03-22T05:58:40;13.20;99.90
47310;DHT22;33046;52.270;6.832;2024-03-22T06:00:46;13.20;99.90
47310;DHT22;33046;52.270;6.832;2024-03-22T06:02:53;13.20;99.90
47310;DHT22;33046;52.270;6.832;2024-03-22T06:04:59;13.20;99.90
47310;DHT22;33046;52.270;6.832;2024-03-22T06:07:05;13.20;99.90
47310;DHT22;33046;52.270;6.832;2024-03-22T06:09:11;13.20;99.90
47310;DHT22;33046;52.270;6.832;2024-03-22T06:11:17;13.20;99.90
47310;DHT22;33046;52.270;6.832;2024-03-22T06:13:23;13.20;99.90
47310;DHT22;33046;52.270;6.832;2024-03-22T06:15:29;13.20;99.90
47310;DHT22;33046;52.270;6.832;2024-03-22T06:17:35;13.20;99.90
47310;DHT22;33046;52.270;6.832;2024-03-22T06:19:42;13.30;99.90
47310;DHT22;33046;52.270;6.832;2024-03-22T06:21:48;13.20;99.90
47310;DHT22;33046;52.270;6.832;2024-03-22T06:23:54;13.20;99.90
47310;DHT22;33046;52.270;6.832;2024-03-22T06:26:00;13.20;99.90
47310;DHT22;33046;52.270;6.832;2024-03-22T06:28:06;13.30;99.90
47310;DHT22;33046;52.270;6.832;2024-03-22T06:30:12;13.20;99.90
47310;DHT22;33046;52.270;6.832;2024-03-22T06:32:18;13.30;99.90
47310;DHT22;33046;52.270;6.832;2024-03-22T06:34:24;13.30;99.90
47310;DHT22;33046;52.270;6.832;2024-03-22T06:36:32;13.30;99.90
47310;DHT22;33046;52.270;6.832;2024-03-22T06:38:38;13.30;99.90
47310;DHT22;33046;52.270;6.832;2024-03-22T06:40:45;13.30;99.90
47310;DHT22;33046;52.270;6.832;2024-03-22T06:42:51;13.30;99.90
47310;DHT22;33046;52.270;6.832;2024-03-22T06:44:56;13.30;99.90
47310;DHT22;33046;52.270;6.832;2024-03-22T06:47:02;13.40;99.90
47310;DHT22;33046;52.270;6.832;2024-03-22T06:49:08;13.30;99.90
47310;DHT22;33046;52.270;6.832;2024-03-22T06:51:14;13.40;99.90
47310;DHT22;33046;52.270;6.832;2024-03-22T06:53:22;13.40;99.90
47310;DHT22;33046;52.270;6.832;2024-03-22T06:55:27;13.30;99.90
47310;DHT22;33046;52.270;6.832;2024-03-22T06:57:33;13.40;99.90
47310;DHT22;33046;52.270;6.832;2024-03-22T06:59:39;13.40;99.90
47310;DHT22;33046;52.270;6.832;2024-03-22T07:01:45;13.30;99.90
47310;DHT22;33046;52.270;6.832;2024-03-22T07:03:51;13.30;99.90
47310;DHT22;33046;52.270;6.832;2024-03-22T07:05:57;13.30;99.90
47310;DHT22;33046;52.270;6.832;2024-03-22T07:08:03;13.30;99.90
47310;DHT22;33046;52.270;6.832;2024-03-22T07:10:11;13.40;99.90
47310;DHT22;33046;52.270;6.832;2024-03-22T07:12:17;13.30;99.90
47310;DHT22;33046;52.270;6.832;2024-03-22T07:14:23;13.40;99.90
47310;DHT22;33046;52.270;6.832;2024-03-22T07:16:29;13.40;99.90
47310;DHT22;33046;52.270;6.832;2024-03-22T07:18:35;13.40;99.90
47310;DHT22;33046;52.270;6.832;2024-03-22T07:20:41;13.40;99.90
47310;DHT22;33046;52.270;6.832;2024-03-22T07:22:47;13.40;99.90
47310;DHT22;33046;52.270;6.832;2024-03-22T07:24:53;13.40;99.90
47310;DHT22;33046;52.270;6.832;2024-03-22T07:27:00;13.40;99.90
47310;DHT22;33046;52.270;6.832;2024-03-22T07:29:07;13.50;99.90
47310;DHT22;33046;52.270;6.832;2024-03-22T07:31:13;13.60;99.90
47310;DHT22;33046;52.270;6.832;2024-03-22T07:33:19;13.50;99.90
47310;DHT22;33046;52.270;6.832;2024-03-22T07:35:25;13.60;99.90
47310;DHT22;33046;52.270;6.832;2024-03-22T07:37:31;13.60;99.90
47310;DHT22;33046;52.270;6.832;2024-03-22T07:39:36;13.60;99.90
47310;DHT22;33046;52.270;6.832;2024-03-22T07:41:42;13.60;99.90
47310;DHT22;33046;52.270;6.832;2024-03-22T07:43:50;13.60;99.90
47310;DHT22;33046;52.270;6.832;2024-03-22T07:45:55;13.60;99.90
47310;DHT22;33046;52.270;6.832;2024-03-22T07:48:01;13.70;99.90
47310;DHT22;33046;52.270;6.832;2024-03-22T07:50:08;13.70;99.90
47310;DHT22;33046;52.270;6.832;2024-03-22T07:52:14;13.70;99.90
47310;DHT22;33046;52.270;6.832;2024-03-22T07:54:20;13.70;99.90
47310;DHT22;33046;52.270;6.832;2024-03-22T07:56:26;13.70;99.90
47310;DHT22;33046;52.270;6.832;2024-03-22T07:58:32;13.70;99.90
47310;DHT22;33046;52.270;6.832;2024-03-22T08:00:39;13.70;99.90
47310;DHT22;33046;52.270;6.832;2024-03-22T08:02:45;13.70;99.90
47310;DHT22;33046;52.270;6.832;2024-03-22T08:04:51;13.70;99.90
47310;DHT22;33046;52.270;6.832;2024-03-22T08:06:57;13.70;99.90
47310;DHT22;33046;52.270;6.832;2024-03-22T08:09:03;13.70;99.90
47310;DHT22;33046;52.270;6.832;2024-03-22T08:11:09;13.70;99.90
47310;DHT22;33046;52.270;6.832;2024-03-22T08:13:14;13.80;99.90
47310;DHT22;33046;52.270;6.832;2024-03-22T08:15:20;13.80;99.90
47310;DHT22;33046;52.270;6.832;2024-03-22T08:17:28;13.80;99.90
47310;DHT22;33046;52.270;6.832;2024-03-22T08:19:33;13.80;99.90
47310;DHT22;33046;52.270;6.832;2024-03-22T08:21:39;13.80;99.90
47310;DHT22;33046;52.270;6.832;2024-03-22T08:23:45;13.80;99.90
47310;DHT22;33046;52.270;6.832;2024-03-22T08:25:51;13.80;99.90
47310;DHT22;33046;52.270;6.832;2024-03-22T08:27:57;13.90;99.90
47310;DHT22;33046;52.270;6.832;2024-03-22T08:30:04;13.80;99.90
47310;DHT22;33046;52.270;6.832;2024-03-22T08:32:10;13.80;99.90
47310;DHT22;33046;52.270;6.832;2024-03-22T08:34:18;13.80;99.90
47310;DHT22;33046;52.270;6.832;2024-03-22T08:36:23;13.80;99.90
47310;DHT22;33046;52.270;6.832;2024-03-22T08:38:29;13.80;99.90
47310;DHT22;33046;52.270;6.832;2024-03-22T08:40:36;13.80;99.90
47310;DHT22;33046;52.270;6.832;2024-03-22T08:42:42;13.80;99.90
47310;DHT22;33046;52.270;6.832;2024-03-22T08:44:48;13.80;99.90
47310;DHT22;33046;52.270;6.832;2024-03-22T08:46:54;13.80;99.90
47310;DHT22;33046;52.270;6.832;2024-03-22T08:49:00;13.80;99.90
47310;DHT22;33046;52.270;6.832;2024-03-22T08:51:07;13.70;99.90
47310;DHT22;33046;52.270;6.832;2024-03-22T08:53:13;13.70;99.90
47310;DHT22;33046;52.270;6.832;2024-03-22T08:55:19;13.70;99.90
47310;DHT22;33046;52.270;6.832;2024-03-22T08:57:25;13.70;99.90
47310;DHT22;33046;52.270;6.832;2024-03-22T08:59:31;13.70;99.90
47310;DHT22;33046;52.270;6.832;2024-03-22T09:01:36;13.70;99.90
47310;DHT22;33046;52.270;6.832;2024-03-22T09:03:42;13.70;99.90
47310;DHT22;33046;52.270;6.832;2024-03-22T09:05:52;13.70;99.90
47310;DHT22;33046;52.270;6.832;2024-03-22T09:07:59;13.70;99.90
47310;DHT22;33046;52.270;6.832;2024-03-22T09:10:06;13.70;99.90
47310;DHT22;33046;52.270;6.832;2024-03-22T09:12:12;13.70;99.90
47310;DHT22;33046;52.270;6.832;2024-03-22T09:14:18;13.60;99.90
47310;DHT22;33046;52.270;6.832;2024-03-22T09:16:24;13.70;99.90
47310;DHT22;33046;52.270;6.832;2024-03-22T09:18:30;13.70;99.90
47310;DHT22;33046;52.270;6.832;2024-03-22T09:20:36;13.70;99.90
47310;DHT22;33046;52.270;6.832;2024-03-22T09:22:42;13.70;99.90
47310;DHT22;33046;52.270;6.832;2024-03-22T09:24:49;13.70;99.90
47310;DHT22;33046;52.270;6.832;2024-03-22T09:26:55;13.60;99.90
47310;DHT22;33046;52.270;6.832;2024-03-22T09:29:01;13.70;99.90
47310;DHT22;33046;52.270;6.832;2024-03-22T09:31:07;13.70;99.90
47310;DHT22;33046;52.270;6.832;2024-03-22T09:33:14;13.60;99.90
47310;DHT22;33046;52.270;6.832;2024-03-22T09:35:19;13.70;99.90
47310;DHT22;33046;52.270;6.832;2024-03-22T09:37:25;13.70;99.90
47310;DHT22;33046;52.270;6.832;2024-03-22T09:39:32;13.70;99.90
47310;DHT22;33046;52.270;6.832;2024-03-22T09:41:42;13.70;99.90
47310;DHT22;33046;52.270;6.832;2024-03-22T09:43:49;13.70;99.90
47310;DHT22;33046;52.270;6.832;2024-03-22T09:45:57;13.70;99.90
47310;DHT22;33046;52.270;6.832;2024-03-22T09:48:04;13.70;99.90
47310;DHT22;33046;52.270;6.832;2024-03-22T09:50:10;13.70;99.90
47310;DHT22;33046;52.270;6.832;2024-03-22T09:52:20;13.70;99.90
47310;DHT22;33046;52.270;6.832;2024-03-22T09:54:26;13.70;99.90
47310;DHT22;33046;52.270;6.832;2024-03-22T09:56:32;13.60;99.90
47310;DHT22;33046;52.270;6.832;2024-03-22T09:58:39;13.60;99.90
47310;DHT22;33046;52.270;6.832;2024-03-22T10:00:45;13.60;99.90
47310;DHT22;33046;52.270;6.832;2024-03-22T10:02:52;13.60;99.90
47310;DHT22;33046;52.270;6.832;2024-03-22T10:04:58;13.60;99.90
47310;DHT22;33046;52.270;6.832;2024-03-22T10:07:04;13.60;99.90
47310;DHT22;33046;52.270;6.832;2024-03-22T10:09:10;13.70;99.90
47310;DHT22;33046;52.270;6.832;2024-03-22T10:11:15;13.60;99.90
47310;DHT22;33046;52.270;6.832;2024-03-22T10:13:21;13.60;99.90
47310;DHT22;33046;52.270;6.832;2024-03-22T10:15:29;13.60;99.90
47310;DHT22;33046;52.270;6.832;2024-03-22T10:17:35;13.60;99.90
47310;DHT22;33046;52.270;6.832;2024-03-22T10:19:41;13.60;99.90
47310;DHT22;33046;52.270;6.832;2024-03-22T10:21:47;13.60;99.90
47310;DHT22;33046;52.270;6.832;2024-03-22T10:23:53;13.60;99.90
47310;DHT22;33046;52.270;6.832;2024-03-22T10:26:00;13.60;99.90
47310;DHT22;33046;52.270;6.832;2024-03-22T10:28:06;13.60;99.90
47310;DHT22;33046;52.270;6.832;2024-03-22T10:30:12;13.60;99.90
47310;DHT22;33046;52.270;6.832;2024-03-22T10:32:23;13.60;99.90
47310;DHT22;33046;52.270;6.832;2024-03-22T10:34:29;13.60;99.90
47310;DHT22;33046;52.270;6.832;2024-03-22T10:36:35;13.60;99.90
47310;DHT22;33046;52.270;6.832;2024-03-22T10:38:42;13.60;99.90
47310;DHT22;33046;52.270;6.832;2024-03-22T10:40:48;13.70;99.90
47310;DHT22;33046;52.270;6.832;2024-03-22T10:42:54;13.60;99.90
47310;DHT22;33046;52.270;6.832;2024-03-22T10:45:01;13.60;99.90
47310;DHT22;33046;52.270;6.832;2024-03-22T10:47:09;13.70;99.90
47310;DHT22;33046;52.270;6.832;2024-03-22T10:49:19;13.70;99.90
47310;DHT22;33046;52.270;6.832;2024-03-22T10:51:26;13.70;99.90
47310;DHT22;33046;52.270;6.832;2024-03-22T10:53:33;13.70;99.90
47310;DHT22;33046;52.270;6.832;2024-03-22T10:55:43;13.70;99.90
47310;DHT22;33046;52.270;6.832;2024-03-22T10:57:50;13.70;99.90
47310;DHT22;33046;52.270;6.832;2024-03-22T10:59:56;13.70;99.90
47310;DHT22;33046;52.270;6.832;2024-03-22T11:02:03;13.80;99.90
47310;DHT22;33046;52.270;6.832;2024-03-22T11:04:09;13.70;99.90
47310;DHT22;33046;52.270;6.832;2024-03-22T11:06:19;13.70;99.90
47310;DHT22;33046;52.270;6.832;2024-03-22T11:08:26;13.70;99.90
47310;DHT22;33046;52.270;6.832;2024-03-22T11:10:33;13.70;99.90
47310;DHT22;33046;52.270;6.832;2024-03-22T11:12:40;13.70;99.90
47310;DHT22;33046;52.270;6.832;2024-03-22T11:14:46;13.80;99.90
47310;DHT22;33046;52.270;6.832;2024-03-22T11:16:52;13.70;99.90
47310;DHT22;33046;52.270;6.832;2024-03-22T11:18:58;13.80;99.90
47310;DHT22;33046;52.270;6.832;2024-03-22T11:21:04;13.80;99.90
47310;DHT22;33046;52.270;6.832;2024-03-22T11:23:12;13.80;99.90
47310;DHT22;33046;52.270;6.832;2024-03-22T11:25:18;13.80;99.90
47310;DHT22;33046;52.270;6.832;2024-03-22T11:27:23;13.70;99.90
47310;DHT22;33046;52.270;6.832;2024-03-22T11:29:29;13.80;99.90
47310;DHT22;33046;52.270;6.832;2024-03-22T11:31:35;13.80;99.90
47310;DHT22;33046;52.270;6.832;2024-03-22T11:33:41;13.80;99.90
47310;DHT22;33046;52.270;6.832;2024-03-22T11:35:47;13.80;99.90
47310;DHT22;33046;52.270;6.832;2024-03-22T11:37:53;13.80;99.90
47310;DHT22;33046;52.270;6.832;2024-03-22T11:40:01;13.70;99.90
47310;DHT22;33046;52.270;6.832;2024-03-22T11:42:08;13.80;99.90
47310;DHT22;33046;52.270;6.832;2024-03-22T11:44:15;13.80;99.90
47310;DHT22;33046;52.270;6.832;2024-03-22T11:46:21;13.80;99.90
47310;DHT22;33046;52.270;6.832;2024-03-22T11:48:27;13.70;99.90
47310;DHT22;33046;52.270;6.832;2024-03-22T11:50:33;13.70;99.90
47310;DHT22;33046;52.270;6.832;2024-03-22T11:52:40;13.70;99.90
47310;DHT22;33046;52.270;6.832;2024-03-22T11:54:50;13.70;99.90
47310;DHT22;33046;52.270;6.832;2024-03-22T11:56:57;13.80;99.90
47310;DHT22;33046;52.270;6.832;2024-03-22T11:59:03;13.80;99.90
47310;DHT22;33046;52.270;6.832;2024-03-22T12:01:09;13.70;99.90
47310;DHT22;33046;52.270;6.832;2024-03-22T12:03:15;13.70;99.90
47310;DHT22;33046;52.270;6.832;2024-03-22T12:05:21;13.70;99.90
47310;DHT22;33046;52.270;6.832;2024-03-22T12:07:28;13.70;99.90
47310;DHT22;33046;52.270;6.832;2024-03-22T12:09:34;13.70;99.90
47310;DHT22;33046;52.270;6.832;2024-03-22T12:11:40;13.70;99.90
47310;DHT22;33046;52.270;6.832;2024-03-22T12:13:47;13.70;99.90
47310;DHT22;33046;52.270;6.832;2024-03-22T12:15:53;13.70;99.90
47310;DHT22;33046;52.270;6.832;2024-03-22T12:17:59;13.70;99.90
47310;DHT22;33046;52.270;6.832;2024-03-22T12:20:06;13.70;99.90
47310;DHT22;33046;52.270;6.832;2024-03-22T12:22:12;13.70;99.90
47310;DHT22;33046;52.270;6.832;2024-03-22T12:24:18;13.70;99.90
47310;DHT22;33046;52.270;6.832;2024-03-22T12:26:24;13.60;99.90
47310;DHT22;33046;52.270;6.832;2024-03-22T12:28:30;13.60;99.90
47310;DHT22;33046;52.270;6.832;2024-03-22T12:30:37;13.70;99.90
47310;DHT22;33046;52.270;6.832;2024-03-22T12:32:43;13.70;99.90
47310;DHT22;33046;52.270;6.832;2024-03-22T12:34:49;13.70;99.90
47310;DHT22;33046;52.270;6.832;2024-03-22T12:36:55;13.70;99.90
47310;DHT22;33046;52.270;6.832;2024-03-22T12:39:01;13.70;99.90
47310;DHT22;33046;52.270;6.832;2024-03-22T12:41:07;13.70;99.90
47310;DHT22;33046;52.270;6.832;2024-03-22T12:43:13;13.70;99.90
47310;DHT22;33046;52.270;6.832;2024-03-22T12:45:19;13.70;99.90
47310;DHT22;33046;52.270;6.832;2024-03-22T12:47:26;13.70;99.90
47310;DHT22;33046;52.270;6.832;2024-03-22T12:49:32;13.70;99.90
47310;DHT22;33046;52.270;6.832;2024-03-22T12:51:38;13.70;99.90
47310;DHT22;33046;52.270;6.832;2024-03-22T12:53:44;13.70;99.90
47310;DHT22;33046;52.270;6.832;2024-03-22T12:55:50;13.70;99.90
47310;DHT22;33046;52.270;6.832;2024-03-22T12:57:56;13.70;99.90
47310;DHT22;33046;52.270;6.832;2024-03-22T13:00:02;13.70;99.90
47310;DHT22;33046;52.270;6.832;2024-03-22T13:02:09;13.70;99.90
47310;DHT22;33046;52.270;6.832;2024-03-22T13:04:17;13.70;99.90
47310;DHT22;33046;52.270;6.832;2024-03-22T13:06:23;13.70;99.90
47310;DHT22;33046;52.270;6.832;2024-03-22T13:08:29;13.70;99.90
47310;DHT22;33046;52.270;6.832;2024-03-22T13:10:35;13.70;99.90
47310;DHT22;33046;52.270;6.832;2024-03-22T13:12:41;13.70;99.90
47310;DHT22;33046;52.270;6.832;2024-03-22T13:14:47;13.70;99.90
47310;DHT22;33046;52.270;6.832;2024-03-22T13:16:52;13.70;99.90